createdAt,value
2017-12-04T00:00:53.044Z,98680.33
2017-12-04T00:01:59.913Z,98677.77
2017-12-04T00:03:06.272Z,98670.13
2017-12-04T00:04:15.989Z,98670.58
2017-12-04T00:05:23.358Z,98667.00
2017-12-04T00:06:29.805Z,98672.53
2017-12-04T00:07:36.422Z,98672.73
2017-12-04T00:08:43.301Z,98667.41
2017-12-04T00:09:49.369Z,98674.55
2017-12-04T00:10:55.381Z,98678.94
2017-12-04T00:12:01.894Z,98673.41
2017-12-04T00:13:09.431Z,98678.62
2017-12-04T00:14:16.398Z,98676.68
2017-12-04T00:15:22.369Z,98680.43
2017-12-04T00:16:29.196Z,98676.13
2017-12-04T00:17:36.387Z,98679.95
2017-12-04T00:18:42.875Z,98670.11
2017-12-04T00:19:49.394Z,98674.98
2017-12-04T00:20:55.537Z,98677.42
2017-12-04T00:22:01.543Z,98683.36
2017-12-04T00:23:07.630Z,98680.23
2017-12-04T00:24:14.038Z,98674.53
2017-12-04T00:25:20.567Z,98674.00
2017-12-04T00:26:28.459Z,98674.25
2017-12-04T00:27:35.921Z,98676.88
2017-12-04T00:28:42.099Z,98672.41
2017-12-04T00:29:48.190Z,98676.00
2017-12-04T00:30:54.370Z,98676.69
2017-12-04T00:32:00.881Z,98671.39
2017-12-04T00:33:06.956Z,98676.85
2017-12-04T00:34:13.286Z,98669.61
2017-12-04T00:35:19.443Z,98673.30
2017-12-04T00:36:25.475Z,98669.81
2017-12-04T00:37:31.844Z,98674.43
2017-12-04T00:38:38.074Z,98676.67
2017-12-04T00:39:44.478Z,98683.22
2017-12-04T00:40:50.800Z,98680.82
2017-12-04T00:41:58.718Z,98687.38
2017-12-04T00:43:05.027Z,98682.72
2017-12-04T00:44:12.612Z,98680.31
2017-12-04T00:45:19.173Z,98676.72
2017-12-04T00:46:25.805Z,98677.42
2017-12-04T00:47:32.924Z,98672.34
2017-12-04T00:48:39.192Z,98670.75
2017-12-04T00:49:46.637Z,98673.46
2017-12-04T00:50:52.892Z,98674.34
2017-12-04T00:51:59.564Z,98671.97
2017-12-04T00:53:05.862Z,98677.83
2017-12-04T00:54:12.063Z,98676.05
2017-12-04T00:55:18.205Z,98680.96
2017-12-04T00:56:24.843Z,98680.45
2017-12-04T00:57:31.260Z,98681.31
2017-12-04T00:58:37.469Z,98677.26
2017-12-04T00:59:43.520Z,98681.94
2017-12-04T01:00:50.042Z,98675.28
2017-12-04T01:01:56.410Z,98686.92
2017-12-04T01:03:05.752Z,98680.72
2017-12-04T01:04:13.201Z,98682.95
2017-12-04T01:05:20.342Z,98680.96
2017-12-04T01:06:26.718Z,98683.22
2017-12-04T01:07:33.554Z,98682.31
2017-12-04T01:08:40.592Z,98682.15
2017-12-04T01:09:47.378Z,98678.88
2017-12-04T01:10:53.684Z,98678.00
2017-12-04T01:12:00.686Z,98682.31
2017-12-04T01:13:07.432Z,98687.58
2017-12-04T01:14:13.743Z,98689.58
2017-12-04T01:15:21.088Z,98686.30
2017-12-04T01:16:29.599Z,98685.99
2017-12-04T01:17:36.059Z,98682.25
2017-12-04T01:18:42.575Z,98688.77
2017-12-04T01:19:49.719Z,98685.23
2017-12-04T01:20:57.021Z,98691.38
2017-12-04T01:22:03.581Z,98693.07
2017-12-04T01:23:11.053Z,98696.84
2017-12-04T01:24:17.547Z,98698.27
2017-12-04T01:25:25.058Z,98701.94
2017-12-04T01:26:31.397Z,98700.66
2017-12-04T01:38:53.831Z,98708.88
2017-12-04T01:39:59.918Z,98711.84
2017-12-04T01:42:45.241Z,98717.83
2017-12-04T01:43:51.568Z,98716.14
2017-12-04T01:44:57.555Z,98723.81
2017-12-04T01:46:03.818Z,98709.86
2017-12-04T01:47:11.211Z,98715.59
2017-12-04T01:48:18.395Z,98710.33
2017-12-04T01:49:25.808Z,98709.61
2017-12-04T01:50:32.291Z,98706.89
2017-12-04T01:51:39.426Z,98707.03
2017-12-04T01:52:45.559Z,98710.06
2017-12-04T01:53:51.817Z,98714.41
2017-12-04T01:54:58.135Z,98713.20
2017-12-04T01:56:04.588Z,98715.36
2017-12-04T01:57:11.454Z,98714.46
2017-12-04T01:58:17.656Z,98717.42
2017-12-04T01:59:23.822Z,98723.03
2017-12-04T02:00:29.959Z,98718.16
2017-12-04T02:01:36.103Z,98718.00
2017-12-04T02:02:42.594Z,98722.55
2017-12-04T02:03:48.810Z,98715.64
2017-12-04T02:04:55.008Z,98714.86
2017-12-04T02:06:01.156Z,98719.48
2017-12-04T02:07:07.100Z,98722.05
2017-12-04T02:08:13.821Z,98714.72
2017-12-04T02:09:20.747Z,98720.42
2017-12-04T02:10:26.946Z,98711.66
2017-12-04T02:11:33.135Z,98707.34
2017-12-04T02:12:39.359Z,98710.71
2017-12-04T02:13:45.504Z,98704.94
2017-12-04T02:15:02.170Z,98712.42
2017-12-04T02:16:08.432Z,98714.29
2017-12-04T02:17:14.850Z,98719.54
2017-12-04T02:18:20.930Z,98717.90
2017-12-04T02:19:27.028Z,98716.62
2017-12-04T02:20:33.218Z,98715.27
2017-12-04T02:21:39.711Z,98705.02
2017-12-04T02:22:45.836Z,98702.35
2017-12-04T02:23:51.964Z,98691.55
2017-12-04T02:24:58.181Z,98703.49
2017-12-04T02:26:04.453Z,98706.09
2017-12-04T02:27:10.674Z,98712.34
2017-12-04T02:28:17.144Z,98711.38
2017-12-04T02:29:23.934Z,98715.05
2017-12-04T02:30:30.157Z,98717.14
2017-12-04T02:31:36.457Z,98718.16
2017-12-04T02:32:42.511Z,98715.03
2017-12-04T02:33:48.619Z,98723.13
2017-12-04T02:34:55.062Z,98722.79
2017-12-04T02:36:01.310Z,98727.87
2017-12-04T02:37:07.601Z,98728.98
2017-12-04T02:38:13.842Z,98733.39
2017-12-04T02:39:20.048Z,98729.84
2017-12-04T02:40:26.370Z,98731.74
2017-12-04T02:41:33.044Z,98728.30
2017-12-04T02:42:39.279Z,98724.17
2017-12-04T02:43:45.566Z,98726.06
2017-12-04T02:44:51.771Z,98718.06
2017-12-04T02:45:58.029Z,98723.34
2017-12-04T02:47:04.550Z,98721.44
2017-12-04T02:48:10.790Z,98720.00
2017-12-04T02:49:17.126Z,98719.19
2017-12-04T02:50:23.401Z,98718.47
2017-12-04T02:51:29.540Z,98714.67
2017-12-04T02:52:36.060Z,98715.78
2017-12-04T02:53:42.309Z,98716.77
2017-12-04T02:54:48.715Z,98719.63
2017-12-04T02:55:55.022Z,98715.08
2017-12-04T02:57:01.273Z,98715.31
2017-12-04T02:58:07.474Z,98715.15
2017-12-04T02:59:13.892Z,98714.74
2017-12-04T03:00:20.049Z,98718.28
2017-12-04T03:01:26.252Z,98716.19
2017-12-04T03:02:32.448Z,98721.42
2017-12-04T03:03:38.608Z,98713.80
2017-12-04T03:04:44.781Z,98718.45
2017-12-04T03:05:51.262Z,98724.59
2017-12-04T03:06:57.189Z,98725.41
2017-12-04T03:08:03.147Z,98726.42
2017-12-04T03:09:09.099Z,98731.20
2017-12-04T03:10:15.004Z,98729.68
2017-12-04T03:11:21.079Z,98730.25
2017-12-04T03:12:27.660Z,98733.29
2017-12-04T03:13:33.824Z,98732.41
2017-12-04T03:14:39.941Z,98727.05
2017-12-04T03:15:45.838Z,98724.27
2017-12-04T03:16:51.939Z,98728.02
2017-12-04T03:17:57.981Z,98729.34
2017-12-04T03:19:04.226Z,98721.01
2017-12-04T03:20:10.176Z,98722.91
2017-12-04T03:21:16.090Z,98736.00
2017-12-04T03:22:22.202Z,98732.39
2017-12-04T03:23:28.256Z,98735.59
2017-12-04T03:24:34.339Z,98735.75
2017-12-04T03:25:40.801Z,98739.23
2017-12-04T03:26:46.799Z,98740.25
2017-12-04T03:27:52.858Z,98736.81
2017-12-04T03:28:58.913Z,98739.44
2017-12-04T03:30:04.952Z,98734.71
2017-12-04T03:31:10.978Z,98740.15
2017-12-04T03:32:17.441Z,98733.43
2017-12-04T03:33:23.449Z,98733.84
2017-12-04T03:34:29.420Z,98740.39
2017-12-04T03:35:35.431Z,98738.09
2017-12-04T03:36:41.533Z,98743.38
2017-12-04T03:37:47.553Z,98736.37
2017-12-04T03:38:53.986Z,98735.73
2017-12-04T03:40:00.031Z,98736.66
2017-12-04T03:41:06.051Z,98736.70
2017-12-04T03:42:12.481Z,98740.45
2017-12-04T03:43:18.501Z,98733.88
2017-12-04T03:44:24.504Z,98726.45
2017-12-04T03:45:31.048Z,98735.42
2017-12-04T03:46:37.124Z,98730.48
2017-12-04T03:47:43.171Z,98734.13
2017-12-04T03:48:49.425Z,98739.09
2017-12-04T03:49:55.479Z,98733.19
2017-12-04T03:51:02.059Z,98733.95
2017-12-04T03:52:08.166Z,98735.87
2017-12-04T03:53:14.186Z,98731.31
2017-12-04T03:54:20.306Z,98736.04
2017-12-04T03:55:26.380Z,98733.00
2017-12-04T03:56:32.751Z,98728.14
2017-12-04T03:57:38.813Z,98733.13
2017-12-04T03:58:44.843Z,98736.66
2017-12-04T03:59:50.905Z,98738.56
2017-12-04T04:00:56.916Z,98735.95
2017-12-04T04:02:03.321Z,98735.37
2017-12-04T04:03:09.347Z,98734.14
2017-12-04T04:04:15.507Z,98738.68
2017-12-04T04:05:21.646Z,98742.51
2017-12-04T04:06:27.669Z,98742.10
2017-12-04T04:07:34.021Z,98740.94
2017-12-04T04:08:39.856Z,98737.56
2017-12-04T04:09:45.704Z,98738.44
2017-12-04T04:10:51.568Z,98742.59
2017-12-04T04:11:57.412Z,98740.30
2017-12-04T04:13:03.301Z,98740.39
2017-12-04T04:14:09.636Z,98746.09
2017-12-04T04:15:15.778Z,98741.67
2017-12-04T04:16:21.845Z,98745.36
2017-12-04T04:17:27.968Z,98740.53
2017-12-04T04:18:33.993Z,98744.14
2017-12-04T04:19:40.023Z,98742.39
2017-12-04T04:20:46.343Z,98742.53
2017-12-04T04:21:52.434Z,98747.25
2017-12-04T04:22:58.489Z,98748.94
2017-12-04T04:24:04.513Z,98747.97
2017-12-04T04:25:10.530Z,98747.88
2017-12-04T04:27:17.452Z,98751.48
2017-12-04T04:28:23.578Z,98749.84
2017-12-04T04:29:29.699Z,98748.09
2017-12-04T04:30:35.878Z,98753.26
2017-12-04T04:31:41.919Z,98744.28
2017-12-04T04:32:48.012Z,98752.38
2017-12-04T04:33:54.460Z,98749.41
2017-12-04T04:35:00.980Z,98747.96
2017-12-04T04:36:07.000Z,98754.52
2017-12-04T04:37:13.042Z,98750.57
2017-12-04T04:38:19.108Z,98751.86
2017-12-04T04:39:25.464Z,98749.31
2017-12-04T04:40:31.554Z,98752.95
2017-12-04T04:41:37.642Z,98750.59
2017-12-04T04:42:43.689Z,98750.95
2017-12-04T04:43:49.761Z,98751.43
2017-12-04T04:44:55.788Z,98749.44
2017-12-04T04:46:02.130Z,98747.44
2017-12-04T04:47:08.164Z,98744.41
2017-12-04T04:48:14.222Z,98747.52
2017-12-04T04:49:20.291Z,98748.53
2017-12-04T04:50:26.441Z,98747.72
2017-12-04T04:51:32.630Z,98747.82
2017-12-04T04:52:39.275Z,98744.28
2017-12-04T04:53:45.340Z,98748.75
2017-12-04T04:54:51.715Z,98748.10
2017-12-04T04:55:57.898Z,98749.31
2017-12-04T04:57:04.156Z,98748.30
2017-12-04T04:58:10.372Z,98743.56
2017-12-04T04:59:16.981Z,98742.86
2017-12-04T05:00:23.175Z,98745.84
2017-12-04T05:01:29.391Z,98740.89
2017-12-04T05:02:35.548Z,98740.01
2017-12-04T05:03:41.747Z,98746.42
2017-12-04T05:04:47.940Z,98743.28
2017-12-04T05:05:54.504Z,98742.51
2017-12-04T05:07:00.782Z,98742.73
2017-12-04T05:08:07.581Z,98744.09
2017-12-04T05:09:13.801Z,98744.50
2017-12-04T05:10:20.043Z,98753.36
2017-12-04T05:11:26.265Z,98757.92
2017-12-04T05:12:32.735Z,98760.28
2017-12-04T05:13:39.068Z,98757.34
2017-12-04T05:14:45.320Z,98754.92
2017-12-04T05:15:52.088Z,98762.42
2017-12-04T05:16:58.517Z,98761.86
2017-12-04T05:18:04.697Z,98757.53
2017-12-04T05:19:11.262Z,98755.95
2017-12-04T05:20:17.723Z,98747.80
2017-12-04T05:21:23.989Z,98761.77
2017-12-04T05:22:30.210Z,98757.96
2017-12-04T05:23:36.573Z,98761.08
2017-12-04T05:24:42.844Z,98756.66
2017-12-04T05:25:49.344Z,98757.84
2017-12-04T05:26:55.572Z,98748.29
2017-12-04T05:28:01.746Z,98764.64
2017-12-04T05:29:08.000Z,98764.90
2017-12-04T05:30:14.224Z,98765.67
2017-12-04T05:31:20.961Z,98764.90
2017-12-04T05:32:27.165Z,98762.06
2017-12-04T05:33:33.391Z,98761.09
2017-12-04T05:34:39.591Z,98766.53
2017-12-04T05:35:45.862Z,98768.13
2017-12-04T05:36:52.268Z,98766.67
2017-12-04T05:37:58.831Z,98755.94
2017-12-04T05:39:05.504Z,98754.55
2017-12-04T05:40:11.746Z,98761.38
2017-12-04T05:41:18.081Z,98754.48
2017-12-04T05:42:24.471Z,98762.98
2017-12-04T05:43:30.756Z,98752.69
2017-12-04T05:44:37.424Z,98756.13
2017-12-04T05:45:44.991Z,98753.92
2017-12-04T05:46:51.333Z,98752.81
2017-12-04T05:47:57.480Z,98756.30
2017-12-04T05:49:03.848Z,98759.41
2017-12-04T05:50:10.049Z,98758.83
2017-12-04T05:51:16.718Z,98759.41
2017-12-04T05:52:23.095Z,98757.81
2017-12-04T05:53:29.425Z,98760.23
2017-12-04T05:54:35.606Z,98753.78
2017-12-04T05:55:41.682Z,98763.11
2017-12-04T05:56:47.848Z,98756.44
2017-12-04T05:57:54.346Z,98761.54
2017-12-04T05:59:00.566Z,98763.23
2017-12-04T06:00:06.123Z,98767.08
2017-12-04T06:01:11.996Z,98768.91
2017-12-04T06:02:17.828Z,98769.42
2017-12-04T06:03:23.679Z,98766.48
2017-12-04T06:04:29.864Z,98770.02
2017-12-04T06:05:35.767Z,98771.23
2017-12-04T06:06:41.649Z,98776.36
2017-12-04T06:07:47.702Z,98774.45
2017-12-04T06:08:53.745Z,98774.95
2017-12-04T06:09:59.779Z,98774.80
2017-12-04T06:11:06.038Z,98774.94
2017-12-04T06:12:11.989Z,98778.11
2017-12-04T06:13:17.909Z,98776.38
2017-12-04T06:14:23.828Z,98776.79
2017-12-04T06:15:29.811Z,98776.95
2017-12-04T06:16:35.884Z,98773.37
2017-12-04T06:17:42.290Z,98783.23
2017-12-04T06:18:48.444Z,98783.16
2017-12-04T06:19:54.526Z,98781.64
2017-12-04T06:21:00.585Z,98787.03
2017-12-04T06:22:06.654Z,98789.17
2017-12-04T06:23:13.023Z,98789.01
2017-12-04T06:24:19.866Z,98786.94
2017-12-04T06:25:26.147Z,98791.50
2017-12-04T06:26:32.351Z,98782.05
2017-12-04T06:27:38.691Z,98794.14
2017-12-04T06:28:45.019Z,98793.73
2017-12-04T06:29:51.236Z,98796.20
2017-12-04T06:30:58.428Z,98796.70
2017-12-04T06:32:04.719Z,98796.25
2017-12-04T06:33:11.767Z,98793.05
2017-12-04T06:34:18.047Z,98792.64
2017-12-04T06:35:24.367Z,98793.69
2017-12-04T06:36:30.701Z,98791.92
2017-12-04T06:37:37.354Z,98796.11
2017-12-04T06:38:43.607Z,98798.42
2017-12-04T06:39:50.781Z,98799.53
2017-12-04T06:40:57.087Z,98801.12
2017-12-04T06:42:03.340Z,98798.02
2017-12-04T06:43:09.604Z,98802.58
2017-12-04T06:44:16.333Z,98800.82
2017-12-04T06:45:22.672Z,98810.31
2017-12-04T06:46:28.901Z,98808.62
2017-12-04T06:47:35.311Z,98808.16
2017-12-04T06:48:41.731Z,98811.91
2017-12-04T06:49:47.934Z,98806.61
2017-12-04T06:50:54.499Z,98812.55
2017-12-04T06:52:00.711Z,98811.34
2017-12-04T06:53:06.933Z,98812.45
2017-12-04T06:54:14.150Z,98816.71
2017-12-04T06:55:20.400Z,98822.41
2017-12-04T06:56:26.641Z,98822.31
2017-12-04T06:57:33.141Z,98825.39
2017-12-04T06:58:39.390Z,98825.08
2017-12-04T06:59:45.729Z,98822.58
2017-12-04T07:00:51.941Z,98825.39
2017-12-04T07:01:58.174Z,98826.41
2017-12-04T07:03:04.417Z,98826.81
2017-12-04T07:04:10.977Z,98827.38
2017-12-04T07:05:17.250Z,98825.70
2017-12-04T07:06:23.496Z,98831.70
2017-12-04T07:07:30.372Z,98824.41
2017-12-04T07:08:36.971Z,98829.55
2017-12-04T07:09:43.469Z,98829.11
2017-12-04T07:10:50.781Z,98835.36
2017-12-04T07:11:57.847Z,98832.70
2017-12-04T07:13:04.216Z,98838.38
2017-12-04T07:14:10.255Z,98837.57
2017-12-04T07:15:16.296Z,98837.50
2017-12-04T07:16:22.563Z,98835.94
2017-12-04T07:17:28.988Z,98836.55
2017-12-04T07:18:35.149Z,98842.39
2017-12-04T07:19:41.220Z,98843.61
2017-12-04T07:20:47.325Z,98839.56
2017-12-04T07:21:53.376Z,98840.07
2017-12-04T07:22:59.486Z,98840.64
2017-12-04T07:24:06.078Z,98845.67
2017-12-04T07:25:12.153Z,98846.62
2017-12-04T07:26:18.310Z,98845.82
2017-12-04T07:27:24.398Z,98845.91
2017-12-04T07:28:30.482Z,98844.94
2017-12-04T07:29:36.638Z,98849.81
2017-12-04T07:30:43.269Z,98851.81
2017-12-04T07:31:49.424Z,98847.25
2017-12-04T07:32:55.460Z,98849.75
2017-12-04T07:34:01.510Z,98850.83
2017-12-04T07:35:07.574Z,98848.36
2017-12-04T07:36:13.761Z,98849.17
2017-12-04T07:37:20.288Z,98842.49
2017-12-04T07:38:26.465Z,98847.67
2017-12-04T07:39:32.554Z,98852.64
2017-12-04T07:40:38.650Z,98852.78
2017-12-04T07:41:44.659Z,98851.90
2017-12-04T07:42:50.967Z,98855.08
2017-12-04T07:43:57.630Z,98847.48
2017-12-04T07:45:03.900Z,98848.77
2017-12-04T07:46:10.212Z,98850.76
2017-12-04T07:47:16.495Z,98846.91
2017-12-04T07:48:22.783Z,98847.28
2017-12-04T07:49:29.870Z,98854.91
2017-12-04T07:50:36.139Z,98855.08
2017-12-04T07:51:42.500Z,98853.33
2017-12-04T07:52:48.848Z,98848.23
2017-12-04T07:53:55.116Z,98849.92
2017-12-04T07:55:01.495Z,98850.53
2017-12-04T07:56:08.231Z,98854.39
2017-12-04T07:57:14.552Z,98862.49
2017-12-04T07:58:22.068Z,98860.80
2017-12-04T07:59:28.403Z,98867.23
2017-12-04T08:00:34.796Z,98865.94
2017-12-04T08:01:41.142Z,98872.91
2017-12-04T08:02:48.001Z,98867.61
2017-12-04T08:03:54.391Z,98866.39
2017-12-04T08:05:00.804Z,98867.91
2017-12-04T08:06:08.034Z,98867.44
2017-12-04T08:07:14.489Z,98873.02
2017-12-04T08:08:20.980Z,98873.39
2017-12-04T08:09:27.680Z,98875.73
2017-12-04T08:10:34.046Z,98878.09
2017-12-04T08:11:40.273Z,98874.08
2017-12-04T08:12:46.805Z,98869.05
2017-12-04T08:13:53.086Z,98874.08
2017-12-04T08:14:59.530Z,98876.25
2017-12-04T08:16:05.810Z,98878.34
2017-12-04T08:17:12.056Z,98876.34
2017-12-04T08:18:18.274Z,98874.95
2017-12-04T08:19:24.398Z,98873.37
2017-12-04T08:20:30.630Z,98878.58
2017-12-04T08:21:37.675Z,98880.17
2017-12-04T08:22:43.922Z,98875.60
2017-12-04T08:23:50.191Z,98874.22
2017-12-04T08:24:56.424Z,98875.64
2017-12-04T08:26:02.579Z,98871.25
2017-12-04T08:27:08.745Z,98876.22
2017-12-04T08:28:15.459Z,98873.89
2017-12-04T08:29:21.548Z,98885.75
2017-12-04T08:30:27.822Z,98872.50
2017-12-04T08:31:33.957Z,98876.09
2017-12-04T08:32:40.046Z,98872.44
2017-12-04T08:33:46.103Z,98883.87
2017-12-04T08:34:52.816Z,98883.30
2017-12-04T08:35:58.896Z,98884.88
2017-12-04T08:37:05.012Z,98878.73
2017-12-04T08:38:11.149Z,98882.31
2017-12-04T08:39:18.277Z,98878.94
2017-12-04T08:40:24.326Z,98876.30
2017-12-04T08:41:30.756Z,98884.14
2017-12-04T08:42:36.883Z,98889.45
2017-12-04T08:43:43.137Z,98887.28
2017-12-04T08:44:49.484Z,98892.59
2017-12-04T08:45:56.292Z,98891.45
2017-12-04T08:47:02.361Z,98891.17
2017-12-04T08:48:09.102Z,98889.00
2017-12-04T08:49:15.462Z,98893.03
2017-12-04T08:50:22.570Z,98892.72
2017-12-04T08:51:29.912Z,98893.50
2017-12-04T08:52:35.923Z,98896.27
2017-12-04T08:53:42.066Z,98900.02
2017-12-04T08:54:48.860Z,98898.91
2017-12-04T08:55:55.081Z,98898.78
2017-12-04T08:57:02.044Z,98894.76
2017-12-04T08:58:08.390Z,98894.42
2017-12-04T08:59:14.687Z,98895.27
2017-12-04T09:00:20.907Z,98895.07
2017-12-04T09:01:28.442Z,98892.91
2017-12-04T09:02:34.740Z,98896.73
2017-12-04T09:03:41.836Z,98893.55
2017-12-04T09:04:47.887Z,98899.70
2017-12-04T09:05:54.029Z,98899.27
2017-12-04T09:07:00.560Z,98901.34
2017-12-04T09:08:07.113Z,98911.81
2017-12-04T09:09:13.343Z,98904.31
2017-12-04T09:10:19.406Z,98906.27
2017-12-04T09:11:25.538Z,98909.52
2017-12-04T09:12:31.731Z,98905.84
2017-12-04T09:13:38.129Z,98907.52
2017-12-04T09:14:44.531Z,98915.84
2017-12-04T09:15:50.631Z,98909.66
2017-12-04T09:16:56.946Z,98903.44
2017-12-04T09:18:03.143Z,98906.69
2017-12-04T09:19:09.225Z,98911.73
2017-12-04T09:20:15.320Z,98909.19
2017-12-04T09:21:21.894Z,98910.48
2017-12-04T09:22:28.093Z,98912.88
2017-12-04T09:23:34.240Z,98915.14
2017-12-04T09:24:40.413Z,98910.14
2017-12-04T09:25:46.605Z,98920.86
2017-12-04T09:26:52.936Z,98915.25
2017-12-04T09:27:59.409Z,98925.53
2017-12-04T09:29:05.504Z,98916.88
2017-12-04T09:30:11.621Z,98919.11
2017-12-04T09:31:17.768Z,98916.81
2017-12-04T09:32:23.890Z,98923.58
2017-12-04T09:33:30.137Z,98919.85
2017-12-04T09:34:36.683Z,98922.12
2017-12-04T09:35:42.766Z,98920.83
2017-12-04T09:36:48.932Z,98925.00
2017-12-04T09:37:55.055Z,98918.27
2017-12-04T09:39:01.191Z,98929.26
2017-12-04T09:40:07.484Z,98921.72
2017-12-04T09:41:14.087Z,98924.92
2017-12-04T09:42:21.185Z,98919.20
2017-12-04T09:43:27.533Z,98918.64
2017-12-04T09:44:33.774Z,98916.64
2017-12-04T09:45:40.175Z,98918.40
2017-12-04T09:46:46.572Z,98923.34
2017-12-04T09:47:53.233Z,98914.84
2017-12-04T09:48:59.535Z,98919.52
2017-12-04T09:50:05.815Z,98923.58
2017-12-04T09:51:12.052Z,98918.64
2017-12-04T09:52:18.293Z,98922.53
2017-12-04T09:53:24.402Z,98923.06
2017-12-04T09:54:30.908Z,98928.92
2017-12-04T09:55:37.011Z,98917.86
2017-12-04T09:56:43.066Z,98927.57
2017-12-04T09:57:49.212Z,98926.95
2017-12-04T09:58:55.333Z,98931.36
2017-12-04T10:00:01.409Z,98939.75
2017-12-04T10:01:07.903Z,98933.25
2017-12-04T10:02:14.200Z,98931.19
2017-12-04T10:03:20.404Z,98932.64
2017-12-04T10:04:26.555Z,98930.27
2017-12-04T10:05:32.585Z,98927.94
2017-12-04T10:06:38.750Z,98930.75
2017-12-04T10:07:45.402Z,98927.84
2017-12-04T10:08:52.140Z,98932.20
2017-12-04T10:09:58.234Z,98936.02
2017-12-04T10:11:04.506Z,98937.01
2017-12-04T10:12:10.587Z,98939.77
2017-12-04T10:13:16.693Z,98935.34
2017-12-04T10:14:23.182Z,98940.14
2017-12-04T10:15:29.600Z,98943.16
2017-12-04T10:16:35.839Z,98942.28
2017-12-04T10:17:42.067Z,98942.89
2017-12-04T10:18:48.328Z,98946.51
2017-12-04T10:19:55.189Z,98946.38
2017-12-04T10:21:01.473Z,98950.88
2017-12-04T10:22:07.719Z,98938.77
2017-12-04T10:23:13.980Z,98945.36
2017-12-04T10:24:20.268Z,98941.09
2017-12-04T10:25:26.641Z,98945.19
2017-12-04T10:26:33.359Z,98948.87
2017-12-04T10:27:39.685Z,98952.03
2017-12-04T10:28:46.115Z,98948.17
2017-12-04T10:29:52.419Z,98946.72
2017-12-04T10:30:58.771Z,98949.09
2017-12-04T10:32:04.898Z,98954.63
2017-12-04T10:33:11.347Z,98950.95
2017-12-04T10:34:17.646Z,98949.66
2017-12-04T10:35:23.913Z,98949.59
2017-12-04T10:36:30.194Z,98944.78
2017-12-04T10:37:36.854Z,98949.35
2017-12-04T10:38:43.315Z,98939.97
2017-12-04T10:39:49.590Z,98946.03
2017-12-04T10:40:56.615Z,98947.63
2017-12-04T10:42:03.017Z,98945.75
2017-12-04T10:43:09.842Z,98946.97
2017-12-04T10:44:18.480Z,98955.00
2017-12-04T10:45:25.079Z,98950.86
2017-12-04T10:46:31.283Z,98948.35
2017-12-04T10:47:37.558Z,98952.45
2017-12-04T10:48:43.823Z,98949.84
2017-12-04T10:49:50.361Z,98944.02
2017-12-04T10:50:56.600Z,98943.67
2017-12-04T10:52:03.287Z,98943.94
2017-12-04T10:53:09.580Z,98946.64
2017-12-04T10:54:16.006Z,98946.67
2017-12-04T10:55:22.251Z,98943.04
2017-12-04T10:56:28.518Z,98942.91
2017-12-04T10:57:34.907Z,98947.00
2017-12-04T10:58:41.569Z,98948.42
2017-12-04T10:59:47.975Z,98944.86
2017-12-04T11:00:54.335Z,98944.28
2017-12-04T11:02:00.644Z,98944.86
2017-12-04T11:03:07.017Z,98945.16
2017-12-04T11:04:13.355Z,98941.26
2017-12-04T11:05:19.954Z,98937.42
2017-12-04T11:06:26.952Z,98947.38
2017-12-04T11:07:33.178Z,98943.53
2017-12-04T11:08:39.532Z,98937.80
2017-12-04T11:09:45.842Z,98942.85
2017-12-04T11:10:52.106Z,98934.35
2017-12-04T11:11:58.770Z,98939.93
2017-12-04T11:13:05.017Z,98942.16
2017-12-04T11:14:11.242Z,98946.19
2017-12-04T11:15:17.535Z,98946.49
2017-12-04T11:16:23.792Z,98936.80
2017-12-04T11:17:30.086Z,98934.55
2017-12-04T11:18:36.877Z,98941.19
2017-12-04T11:19:42.966Z,98936.98
2017-12-04T11:20:49.316Z,98941.45
2017-12-04T11:21:56.198Z,98943.14
2017-12-04T11:23:02.434Z,98941.27
2017-12-04T11:24:09.799Z,98943.87
2017-12-04T11:25:16.628Z,98953.19
2017-12-04T11:26:29.417Z,98948.16
2017-12-04T11:27:37.071Z,98945.81
2017-12-04T11:28:43.347Z,98954.14
2017-12-04T11:29:49.555Z,98951.50
2017-12-04T11:30:55.886Z,98954.27
2017-12-04T11:32:02.501Z,98952.23
2017-12-04T11:33:08.725Z,98949.95
2017-12-04T11:34:14.947Z,98947.20
2017-12-04T11:35:21.224Z,98945.91
2017-12-04T11:36:27.428Z,98947.50
2017-12-04T11:37:33.624Z,98937.04
2017-12-04T11:38:40.237Z,98939.86
2017-12-04T11:39:46.454Z,98932.64
2017-12-04T11:40:52.787Z,98936.41
2017-12-04T11:41:59.192Z,98932.01
2017-12-04T11:43:05.466Z,98931.70
2017-12-04T11:44:11.668Z,98936.79
2017-12-04T11:45:18.376Z,98934.81
2017-12-04T11:46:24.820Z,98939.56
2017-12-04T11:47:31.130Z,98934.81
2017-12-04T11:48:38.531Z,98939.86
2017-12-04T11:50:00.452Z,98938.20
2017-12-04T11:51:08.452Z,98932.41
2017-12-04T11:52:15.488Z,98937.56
2017-12-04T11:53:22.298Z,98935.80
2017-12-04T11:54:29.163Z,98933.30
2017-12-04T11:55:45.776Z,98934.11
2017-12-04T11:56:52.295Z,98924.20
2017-12-04T11:57:59.358Z,98937.62
2017-12-04T11:59:06.306Z,98931.88
2017-12-04T12:00:13.612Z,98936.23
2017-12-04T12:01:20.353Z,98936.23
2017-12-04T12:02:26.845Z,98933.05
2017-12-04T12:03:33.560Z,98930.84
2017-12-04T12:04:40.125Z,98942.14
2017-12-04T12:05:46.218Z,98934.00
2017-12-04T12:06:52.631Z,98937.97
2017-12-04T12:07:59.099Z,98935.22
2017-12-04T12:09:06.831Z,98934.34
2017-12-04T12:10:20.883Z,98930.95
2017-12-04T12:11:28.739Z,98942.84
2017-12-04T12:12:35.090Z,98945.95
2017-12-04T12:13:41.328Z,98946.95
2017-12-04T12:14:47.568Z,98939.45
2017-12-04T12:15:54.913Z,98941.85
2017-12-04T12:17:01.591Z,98936.88
2017-12-04T12:18:08.210Z,98945.51
2017-12-04T12:19:14.465Z,98947.78
2017-12-04T12:20:20.768Z,98939.88
2017-12-04T12:21:26.999Z,98944.92
2017-12-04T12:22:33.696Z,98944.85
2017-12-04T12:23:39.959Z,98951.09
2017-12-04T12:24:46.160Z,98950.78
2017-12-04T12:25:52.428Z,98948.02
2017-12-04T12:26:58.700Z,98952.77
2017-12-04T12:28:04.966Z,98951.77
2017-12-04T12:29:11.659Z,98949.20
2017-12-04T12:30:18.925Z,98946.44
2017-12-04T12:31:25.326Z,98951.54
2017-12-04T12:32:31.626Z,98949.46
2017-12-04T12:33:38.574Z,98950.38
2017-12-04T12:34:44.830Z,98957.30
2017-12-04T12:35:51.508Z,98957.19
2017-12-04T12:36:57.807Z,98960.10
2017-12-04T12:38:04.062Z,98952.84
2017-12-04T12:39:10.311Z,98945.88
2017-12-04T12:40:16.597Z,98950.16
2017-12-04T12:41:22.731Z,98951.50
2017-12-04T12:42:30.294Z,98954.86
2017-12-04T12:43:36.426Z,98957.84
2017-12-04T12:44:42.614Z,98954.61
2017-12-04T12:45:48.907Z,98953.11
2017-12-04T12:46:54.912Z,98953.73
2017-12-04T12:48:01.122Z,98949.06
2017-12-04T12:49:07.717Z,98934.36
2017-12-04T12:50:13.796Z,98938.62
2017-12-04T12:51:20.145Z,98931.42
2017-12-04T12:52:26.255Z,98928.03
2017-12-04T12:53:32.443Z,98929.25
2017-12-04T12:54:38.521Z,98936.29
2017-12-04T12:55:44.887Z,98922.23
2017-12-04T12:56:50.992Z,98930.77
2017-12-04T12:57:58.142Z,98933.66
2017-12-04T12:59:04.250Z,98929.97
2017-12-04T13:00:10.487Z,98936.94
2017-12-04T13:01:16.837Z,98934.84
2017-12-04T13:02:23.342Z,98935.06
2017-12-04T13:03:29.444Z,98939.94
2017-12-04T13:04:35.544Z,98930.09
2017-12-04T13:05:41.646Z,98937.64
2017-12-04T13:06:47.823Z,98940.41
2017-12-04T13:07:54.027Z,98941.20
2017-12-04T13:09:00.688Z,98941.22
2017-12-04T13:10:06.896Z,98936.08
2017-12-04T13:11:13.143Z,98943.16
2017-12-04T13:12:19.240Z,98944.15
2017-12-04T13:13:25.313Z,98943.16
2017-12-04T13:14:31.496Z,98945.73